sensor_id;sensor_type;location;lat;lon;timestamp;temperature;humidity
17200;DHT22;8716;52.268;20.968;2023-06-14T00:00:40;14.10;99.90
17200;DHT22;8716;52.268;20.968;2023-06-14T00:03:10;14.10;99.90
17200;DHT22;8716;52.268;20.968;2023-06-14T00:05:39;14.10;99.90
17200;DHT22;8716;52.268;20.968;2023-06-14T00:08:11;14.10;99.90
17200;DHT22;8716;52.268;20.968;2023-06-14T00:10:40;14.10;99.90
17200;DHT22;8716;52.268;20.968;2023-06-14T00:13:09;14.10;99.90
17200;DHT22;8716;52.268;20.968;2023-06-14T00:15:37;14.10;99.90
17200;DHT22;8716;52.268;20.968;2023-06-14T00:18:06;14.10;99.90
17200;DHT22;8716;52.268;20.968;2023-06-14T00:20:37;14.10;99.90
17200;DHT22;8716;52.268;20.968;2023-06-14T00:23:06;14.10;99.90
17200;DHT22;8716;52.268;20.968;2023-06-14T00:25:35;14.10;99.90
17200;DHT22;8716;52.268;20.968;2023-06-14T00:28:04;14.10;99.90
17200;DHT22;8716;52.268;20.968;2023-06-14T00:30:34;14.10;99.90
17200;DHT22;8716;52.268;20.968;2023-06-14T00:33:02;14.10;99.90
17200;DHT22;8716;52.268;20.968;2023-06-14T00:35:31;14.10;99.90
17200;DHT22;8716;52.268;20.968;2023-06-14T00:37:59;14.10;99.90
17200;DHT22;8716;52.268;20.968;2023-06-14T00:40:28;14.00;99.90
17200;DHT22;8716;52.268;20.968;2023-06-14T00:42:58;14.00;99.90
17200;DHT22;8716;52.268;20.968;2023-06-14T00:45:26;14.10;99.90
17200;DHT22;8716;52.268;20.968;2023-06-14T00:47:55;14.10;99.90
17200;DHT22;8716;52.268;20.968;2023-06-14T00:50:24;14.10;99.90
17200;DHT22;8716;52.268;20.968;2023-06-14T00:52:53;14.10;99.90
17200;DHT22;8716;52.268;20.968;2023-06-14T00:55:21;14.00;99.90
17200;DHT22;8716;52.268;20.968;2023-06-14T00:57:49;14.00;99.90
17200;DHT22;8716;52.268;20.968;2023-06-14T01:00:19;14.00;99.90
17200;DHT22;8716;52.268;20.968;2023-06-14T01:02:48;14.10;99.90
17200;DHT22;8716;52.268;20.968;2023-06-14T01:05:17;14.10;99.90
17200;DHT22;8716;52.268;20.968;2023-06-14T01:08:05;14.10;99.90
17200;DHT22;8716;52.268;20.968;2023-06-14T01:10:43;14.10;99.90
17200;DHT22;8716;52.268;20.968;2023-06-14T01:13:20;14.10;99.90
17200;DHT22;8716;52.268;20.968;2023-06-14T01:15:51;14.10;99.90
17200;DHT22;8716;52.268;20.968;2023-06-14T01:18:21;14.10;99.90
17200;DHT22;8716;52.268;20.968;2023-06-14T01:20:53;14.10;99.90
17200;DHT22;8716;52.268;20.968;2023-06-14T01:23:25;14.10;99.90
17200;DHT22;8716;52.268;20.968;2023-06-14T01:26:00;14.10;99.90
17200;DHT22;8716;52.268;20.968;2023-06-14T01:28:31;14.10;99.90
17200;DHT22;8716;52.268;20.968;2023-06-14T01:31:02;14.10;99.90
17200;DHT22;8716;52.268;20.968;2023-06-14T01:33:33;14.10;99.90
17200;DHT22;8716;52.268;20.968;2023-06-14T01:36:05;14.10;99.90
17200;DHT22;8716;52.268;20.968;2023-06-14T01:38:36;14.10;99.90
17200;DHT22;8716;52.268;20.968;2023-06-14T01:41:08;14.10;99.90
17200;DHT22;8716;52.268;20.968;2023-06-14T01:43:37;14.10;99.90
17200;DHT22;8716;52.268;20.968;2023-06-14T01:46:08;14.20;99.90
17200;DHT22;8716;52.268;20.968;2023-06-14T01:48:38;14.20;99.90
17200;DHT22;8716;52.268;20.968;2023-06-14T01:51:06;14.20;99.90
17200;DHT22;8716;52.268;20.968;2023-06-14T01:53:44;14.20;99.90
17200;DHT22;8716;52.268;20.968;2023-06-14T01:56:13;14.20;99.90
17200;DHT22;8716;52.268;20.968;2023-06-14T01:58:49;14.20;99.90
17200;DHT22;8716;52.268;20.968;2023-06-14T02:01:19;14.20;99.90
17200;DHT22;8716;52.268;20.968;2023-06-14T02:03:50;14.20;99.90
17200;DHT22;8716;52.268;20.968;2023-06-14T02:06:20;14.20;99.90
17200;DHT22;8716;52.268;20.968;2023-06-14T02:08:52;14.20;99.90
17200;DHT22;8716;52.268;20.968;2023-06-14T02:11:20;14.20;99.90
17200;DHT22;8716;52.268;20.968;2023-06-14T02:13:51;14.20;99.90
17200;DHT22;8716;52.268;20.968;2023-06-14T02:16:22;14.20;99.90
17200;DHT22;8716;52.268;20.968;2023-06-14T02:18:54;14.30;99.90
17200;DHT22;8716;52.268;20.968;2023-06-14T02:21:23;14.20;99.90
17200;DHT22;8716;52.268;20.968;2023-06-14T02:23:54;14.30;99.90
17200;DHT22;8716;52.268;20.968;2023-06-14T02:26:23;14.30;99.90
17200;DHT22;8716;52.268;20.968;2023-06-14T02:28:51;14.30;99.90
17200;DHT22;8716;52.268;20.968;2023-06-14T02:31:19;14.30;99.90
17200;DHT22;8716;52.268;20.968;2023-06-14T02:33:56;14.20;99.90
17200;DHT22;8716;52.268;20.968;2023-06-14T02:36:24;14.20;99.90
17200;DHT22;8716;52.268;20.968;2023-06-14T02:38:54;14.30;99.90
17200;DHT22;8716;52.268;20.968;2023-06-14T02:41:24;14.20;99.90
17200;DHT22;8716;52.268;20.968;2023-06-14T02:44:18;14.30;99.90
17200;DHT22;8716;52.268;20.968;2023-06-14T02:46:46;14.30;99.90
17200;DHT22;8716;52.268;20.968;2023-06-14T02:49:16;14.30;99.90
17200;DHT22;8716;52.268;20.968;2023-06-14T02:51:46;14.40;99.90
17200;DHT22;8716;52.268;20.968;2023-06-14T02:54:16;14.30;99.90
17200;DHT22;8716;52.268;20.968;2023-06-14T02:56:44;14.40;99.90
17200;DHT22;8716;52.268;20.968;2023-06-14T02:59:12;14.40;99.90
17200;DHT22;8716;52.268;20.968;2023-06-14T03:01:42;14.40;99.90
17200;DHT22;8716;52.268;20.968;2023-06-14T03:04:14;14.40;99.90
17200;DHT22;8716;52.268;20.968;2023-06-14T03:06:43;14.40;99.90
17200;DHT22;8716;52.268;20.968;2023-06-14T03:09:23;14.40;99.90
17200;DHT22;8716;52.268;20.968;2023-06-14T03:11:52;14.50;99.90
17200;DHT22;8716;52.268;20.968;2023-06-14T03:14:53;14.50;99.90
17200;DHT22;8716;52.268;20.968;2023-06-14T03:17:26;14.40;99.90
17200;DHT22;8716;52.268;20.968;2023-06-14T03:19:58;14.50;99.90
17200;DHT22;8716;52.268;20.968;2023-06-14T03:22:26;14.50;99.90
17200;DHT22;8716;52.268;20.968;2023-06-14T03:25:02;14.50;99.90
17200;DHT22;8716;52.268;20.968;2023-06-14T03:27:35;14.50;99.90
17200;DHT22;8716;52.268;20.968;2023-06-14T03:30:09;14.60;99.90
17200;DHT22;8716;52.268;20.968;2023-06-14T03:32:45;14.60;99.90
17200;DHT22;8716;52.268;20.968;2023-06-14T03:35:39;14.70;99.90
17200;DHT22;8716;52.268;20.968;2023-06-14T03:38:09;14.70;99.90
17200;DHT22;8716;52.268;20.968;2023-06-14T03:40:49;14.60;99.90
17200;DHT22;8716;52.268;20.968;2023-06-14T03:43:20;14.60;99.90
17200;DHT22;8716;52.268;20.968;2023-06-14T03:45:49;14.60;99.90
17200;DHT22;8716;52.268;20.968;2023-06-14T03:48:29;14.60;99.90
17200;DHT22;8716;52.268;20.968;2023-06-14T03:51:00;14.70;99.90
17200;DHT22;8716;52.268;20.968;2023-06-14T03:53:29;14.70;99.90
17200;DHT22;8716;52.268;20.968;2023-06-14T03:56:08;14.70;99.90
17200;DHT22;8716;52.268;20.968;2023-06-14T03:58:45;14.70;99.90
17200;DHT22;8716;52.268;20.968;2023-06-14T04:01:18;14.80;99.90
17200;DHT22;8716;52.268;20.968;2023-06-14T04:03:46;14.80;99.90
17200;DHT22;8716;52.268;20.968;2023-06-14T04:06:20;14.90;99.90
17200;DHT22;8716;52.268;20.968;2023-06-14T04:08:51;14.90;99.90
17200;DHT22;8716;52.268;20.968;2023-06-14T04:11:21;14.90;99.90
17200;DHT22;8716;52.268;20.968;2023-06-14T04:13:49;15.00;99.90
17200;DHT22;8716;52.268;20.968;2023-06-14T04:16:20;15.00;99.90
17200;DHT22;8716;52.268;20.968;2023-06-14T04:18:49;15.00;99.90
17200;DHT22;8716;52.268;20.968;2023-06-14T04:21:19;15.10;99.90
17200;DHT22;8716;52.268;20.968;2023-06-14T04:23:47;15.10;99.90
17200;DHT22;8716;52.268;20.968;2023-06-14T04:26:24;15.20;99.90
17200;DHT22;8716;52.268;20.968;2023-06-14T04:28:57;15.20;99.90
17200;DHT22;8716;52.268;20.968;2023-06-14T04:31:31;15.30;99.90
17200;DHT22;8716;52.268;20.968;2023-06-14T04:34:02;15.30;99.90
17200;DHT22;8716;52.268;20.968;2023-06-14T04:36:34;15.30;99.90
17200;DHT22;8716;52.268;20.968;2023-06-14T04:39:04;15.30;99.90
17200;DHT22;8716;52.268;20.968;2023-06-14T04:41:34;15.40;99.90
17200;DHT22;8716;52.268;20.968;2023-06-14T04:44:04;15.40;99.90
17200;DHT22;8716;52.268;20.968;2023-06-14T04:46:39;15.40;99.90
17200;DHT22;8716;52.268;20.968;2023-06-14T04:49:21;15.40;99.90
17200;DHT22;8716;52.268;20.968;2023-06-14T04:51:53;15.50;99.90
17200;DHT22;8716;52.268;20.968;2023-06-14T04:54:30;15.50;99.90
17200;DHT22;8716;52.268;20.968;2023-06-14T04:57:10;15.50;99.90
17200;DHT22;8716;52.268;20.968;2023-06-14T04:59:42;15.60;99.90
17200;DHT22;8716;52.268;20.968;2023-06-14T05:02:13;15.60;99.90
17200;DHT22;8716;52.268;20.968;2023-06-14T05:04:51;15.70;99.90
17200;DHT22;8716;52.268;20.968;2023-06-14T05:07:20;15.70;99.90
17200;DHT22;8716;52.268;20.968;2023-06-14T05:09:51;15.80;99.90
17200;DHT22;8716;52.268;20.968;2023-06-14T05:12:21;15.80;99.90
17200;DHT22;8716;52.268;20.968;2023-06-14T05:14:50;15.80;99.90
17200;DHT22;8716;52.268;20.968;2023-06-14T05:17:20;15.80;99.90
17200;DHT22;8716;52.268;20.968;2023-06-14T05:19:49;15.80;99.90
17200;DHT22;8716;52.268;20.968;2023-06-14T05:22:17;15.80;99.90
17200;DHT22;8716;52.268;20.968;2023-06-14T05:24:45;15.80;99.90
17200;DHT22;8716;52.268;20.968;2023-06-14T05:27:16;15.90;99.90
17200;DHT22;8716;52.268;20.968;2023-06-14T05:29:46;15.90;99.90
17200;DHT22;8716;52.268;20.968;2023-06-14T05:32:14;15.90;99.90
17200;DHT22;8716;52.268;20.968;2023-06-14T05:34:43;16.00;99.90
17200;DHT22;8716;52.268;20.968;2023-06-14T05:37:11;16.00;99.90
17200;DHT22;8716;52.268;20.968;2023-06-14T05:39:42;16.00;99.90
17200;DHT22;8716;52.268;20.968;2023-06-14T05:42:11;16.10;99.90
17200;DHT22;8716;52.268;20.968;2023-06-14T05:44:40;16.20;99.90
17200;DHT22;8716;52.268;20.968;2023-06-14T05:47:10;16.30;99.90
17200;DHT22;8716;52.268;20.968;2023-06-14T05:49:40;16.40;99.90
17200;DHT22;8716;52.268;20.968;2023-06-14T05:52:12;16.40;99.90
17200;DHT22;8716;52.268;20.968;2023-06-14T05:54:40;16.50;99.90
17200;DHT22;8716;52.268;20.968;2023-06-14T05:57:09;16.50;99.90
17200;DHT22;8716;52.268;20.968;2023-06-14T05:59:46;16.50;99.90
17200;DHT22;8716;52.268;20.968;2023-06-14T06:02:16;16.50;99.90
17200;DHT22;8716;52.268;20.968;2023-06-14T06:04:44;16.60;99.90
17200;DHT22;8716;52.268;20.968;2023-06-14T06:07:12;16.70;99.90
17200;DHT22;8716;52.268;20.968;2023-06-14T06:09:40;16.80;99.90
17200;DHT22;8716;52.268;20.968;2023-06-14T06:12:09;16.80;99.90
17200;DHT22;8716;52.268;20.968;2023-06-14T06:14:37;16.90;99.90
17200;DHT22;8716;52.268;20.968;2023-06-14T06:17:05;16.90;99.90
17200;DHT22;8716;52.268;20.968;2023-06-14T06:19:38;17.00;99.90
17200;DHT22;8716;52.268;20.968;2023-06-14T06:22:06;17.00;99.90
17200;DHT22;8716;52.268;20.968;2023-06-14T06:24:35;17.10;99.90
17200;DHT22;8716;52.268;20.968;2023-06-14T06:27:03;17.20;99.90
17200;DHT22;8716;52.268;20.968;2023-06-14T06:29:32;17.30;99.90
17200;DHT22;8716;52.268;20.968;2023-06-14T06:32:02;17.30;99.90
17200;DHT22;8716;52.268;20.968;2023-06-14T06:34:31;17.40;99.90
17200;DHT22;8716;52.268;20.968;2023-06-14T06:37:00;17.40;99.90
17200;DHT22;8716;52.268;20.968;2023-06-14T06:39:31;17.30;99.90
17200;DHT22;8716;52.268;20.968;2023-06-14T06:41:59;17.30;99.90
17200;DHT22;8716;52.268;20.968;2023-06-14T06:44:35;17.30;99.90
17200;DHT22;8716;52.268;20.968;2023-06-14T06:47:04;17.40;99.90
17200;DHT22;8716;52.268;20.968;2023-06-14T06:49:35;17.50;99.90
17200;DHT22;8716;52.268;20.968;2023-06-14T06:52:05;17.60;99.90
17200;DHT22;8716;52.268;20.968;2023-06-14T06:54:34;17.70;99.90
17200;DHT22;8716;52.268;20.968;2023-06-14T06:57:03;17.80;99.90
17200;DHT22;8716;52.268;20.968;2023-06-14T06:59:31;17.80;99.90
17200;DHT22;8716;52.268;20.968;2023-06-14T07:02:00;17.80;99.90
17200;DHT22;8716;52.268;20.968;2023-06-14T07:04:28;17.80;99.90
17200;DHT22;8716;52.268;20.968;2023-06-14T07:06:56;17.80;99.90
17200;DHT22;8716;52.268;20.968;2023-06-14T07:09:26;17.80;99.90
17200;DHT22;8716;52.268;20.968;2023-06-14T07:11:54;17.70;99.90
17200;DHT22;8716;52.268;20.968;2023-06-14T07:14:22;17.70;99.90
17200;DHT22;8716;52.268;20.968;2023-06-14T07:16:51;17.70;99.90
17200;DHT22;8716;52.268;20.968;2023-06-14T07:19:19;17.70;99.90
17200;DHT22;8716;52.268;20.968;2023-06-14T07:21:47;17.70;99.90
17200;DHT22;8716;52.268;20.968;2023-06-14T07:24:17;17.80;99.90
17200;DHT22;8716;52.268;20.968;2023-06-14T07:26:49;17.90;99.90
17200;DHT22;8716;52.268;20.968;2023-06-14T07:29:18;18.00;99.90
17200;DHT22;8716;52.268;20.968;2023-06-14T07:31:46;18.20;99.90
17200;DHT22;8716;52.268;20.968;2023-06-14T07:34:15;18.30;99.90
17200;DHT22;8716;52.268;20.968;2023-06-14T07:36:43;18.40;99.90
17200;DHT22;8716;52.268;20.968;2023-06-14T07:39:12;18.60;99.90
17200;DHT22;8716;52.268;20.968;2023-06-14T07:41:41;18.70;99.90
17200;DHT22;8716;52.268;20.968;2023-06-14T07:44:11;18.90;99.90
17200;DHT22;8716;52.268;20.968;2023-06-14T07:46:43;19.10;99.90
17200;DHT22;8716;52.268;20.968;2023-06-14T07:49:13;19.20;99.90
17200;DHT22;8716;52.268;20.968;2023-06-14T07:51:42;19.40;99.90
17200;DHT22;8716;52.268;20.968;2023-06-14T07:54:11;19.60;99.90
17200;DHT22;8716;52.268;20.968;2023-06-14T07:56:41;19.70;99.90
17200;DHT22;8716;52.268;20.968;2023-06-14T07:59:12;19.80;99.90
17200;DHT22;8716;52.268;20.968;2023-06-14T08:01:40;19.90;99.90
17200;DHT22;8716;52.268;20.968;2023-06-14T08:04:14;20.00;99.90
17200;DHT22;8716;52.268;20.968;2023-06-14T08:06:45;20.00;99.90
17200;DHT22;8716;52.268;20.968;2023-06-14T08:09:15;20.00;99.90
17200;DHT22;8716;52.268;20.968;2023-06-14T08:11:43;20.00;99.90
17200;DHT22;8716;52.268;20.968;2023-06-14T08:14:13;20.10;99.90
17200;DHT22;8716;52.268;20.968;2023-06-14T08:16:42;20.10;99.90
17200;DHT22;8716;52.268;20.968;2023-06-14T08:19:10;20.10;99.90
17200;DHT22;8716;52.268;20.968;2023-06-14T08:21:39;20.10;99.90
17200;DHT22;8716;52.268;20.968;2023-06-14T08:24:07;20.20;99.90
17200;DHT22;8716;52.268;20.968;2023-06-14T08:26:37;20.30;99.90
17200;DHT22;8716;52.268;20.968;2023-06-14T08:29:06;20.30;99.90
17200;DHT22;8716;52.268;20.968;2023-06-14T08:31:36;20.40;99.90
17200;DHT22;8716;52.268;20.968;2023-06-14T08:34:04;20.40;99.90
17200;DHT22;8716;52.268;20.968;2023-06-14T08:36:34;20.40;99.90
17200;DHT22;8716;52.268;20.968;2023-06-14T08:39:05;20.50;99.90
17200;DHT22;8716;52.268;20.968;2023-06-14T08:41:33;20.50;99.90
17200;DHT22;8716;52.268;20.968;2023-06-14T08:44:02;20.50;99.90
17200;DHT22;8716;52.268;20.968;2023-06-14T08:46:33;20.50;99.90
17200;DHT22;8716;52.268;20.968;2023-06-14T08:49:04;20.40;99.90
17200;DHT22;8716;52.268;20.968;2023-06-14T08:51:35;20.40;99.90
17200;DHT22;8716;52.268;20.968;2023-06-14T08:54:04;20.50;99.90
17200;DHT22;8716;52.268;20.968;2023-06-14T08:56:33;20.60;99.90
17200;DHT22;8716;52.268;20.968;2023-06-14T08:59:03;21.00;99.90
17200;DHT22;8716;52.268;20.968;2023-06-14T09:01:33;21.40;99.90
17200;DHT22;8716;52.268;20.968;2023-06-14T09:04:04;22.00;99.90
17200;DHT22;8716;52.268;20.968;2023-06-14T09:06:36;22.40;99.90
17200;DHT22;8716;52.268;20.968;2023-06-14T09:09:04;22.80;99.90
17200;DHT22;8716;52.268;20.968;2023-06-14T09:11:35;23.00;99.90
17200;DHT22;8716;52.268;20.968;2023-06-14T09:14:03;23.20;99.90
17200;DHT22;8716;52.268;20.968;2023-06-14T09:16:32;23.40;99.90
17200;DHT22;8716;52.268;20.968;2023-06-14T09:19:02;23.60;99.90
17200;DHT22;8716;52.268;20.968;2023-06-14T09:21:33;23.70;99.90
17200;DHT22;8716;52.268;20.968;2023-06-14T09:24:03;23.70;99.90
17200;DHT22;8716;52.268;20.968;2023-06-14T09:26:32;23.70;99.90
17200;DHT22;8716;52.268;20.968;2023-06-14T09:29:01;23.80;99.90
17200;DHT22;8716;52.268;20.968;2023-06-14T09:31:35;23.90;99.90
17200;DHT22;8716;52.268;20.968;2023-06-14T09:34:05;24.00;99.90
17200;DHT22;8716;52.268;20.968;2023-06-14T09:36:36;24.10;99.90
17200;DHT22;8716;52.268;20.968;2023-06-14T09:39:04;24.00;99.90
17200;DHT22;8716;52.268;20.968;2023-06-14T09:41:37;23.80;99.90
17200;DHT22;8716;52.268;20.968;2023-06-14T09:44:07;23.50;99.90
17200;DHT22;8716;52.268;20.968;2023-06-14T09:46:41;23.30;99.90
17200;DHT22;8716;52.268;20.968;2023-06-14T09:49:11;23.00;99.90
17200;DHT22;8716;52.268;20.968;2023-06-14T09:51:43;22.80;99.90
17200;DHT22;8716;52.268;20.968;2023-06-14T09:54:15;22.80;99.90
17200;DHT22;8716;52.268;20.968;2023-06-14T09:56:45;22.90;99.90
17200;DHT22;8716;52.268;20.968;2023-06-14T09:59:19;23.10;99.90
17200;DHT22;8716;52.268;20.968;2023-06-14T10:01:57;23.40;99.90
17200;DHT22;8716;52.268;20.968;2023-06-14T10:04:27;23.70;99.90
17200;DHT22;8716;52.268;20.968;2023-06-14T10:06:57;24.00;99.90
17200;DHT22;8716;52.268;20.968;2023-06-14T10:09:26;24.30;99.90
17200;DHT22;8716;52.268;20.968;2023-06-14T10:11:58;24.70;99.90
17200;DHT22;8716;52.268;20.968;2023-06-14T10:14:27;25.10;99.90
17200;DHT22;8716;52.268;20.968;2023-06-14T10:17:00;25.40;99.90
17200;DHT22;8716;52.268;20.968;2023-06-14T10:19:37;25.50;99.90
17200;DHT22;8716;52.268;20.968;2023-06-14T10:22:12;25.60;99.90
17200;DHT22;8716;52.268;20.968;2023-06-14T10:24:45;25.70;99.90
17200;DHT22;8716;52.268;20.968;2023-06-14T10:27:16;25.80;99.90
17200;DHT22;8716;52.268;20.968;2023-06-14T10:30:06;26.10;99.90
17200;DHT22;8716;52.268;20.968;2023-06-14T10:32:35;26.10;99.90
17200;DHT22;8716;52.268;20.968;2023-06-14T10:35:06;26.50;99.90
17200;DHT22;8716;52.268;20.968;2023-06-14T10:37:36;27.00;99.90
17200;DHT22;8716;52.268;20.968;2023-06-14T10:40:05;27.10;99.90
17200;DHT22;8716;52.268;20.968;2023-06-14T10:42:35;27.00;99.90
17200;DHT22;8716;52.268;20.968;2023-06-14T10:45:05;26.90;99.90
17200;DHT22;8716;52.268;20.968;2023-06-14T10:47:34;26.80;99.90
17200;DHT22;8716;52.268;20.968;2023-06-14T10:50:07;26.80;99.90
17200;DHT22;8716;52.268;20.968;2023-06-14T10:52:39;26.60;99.90
17200;DHT22;8716;52.268;20.968;2023-06-14T10:55:13;26.40;99.90
17200;DHT22;8716;52.268;20.968;2023-06-14T10:57:45;26.30;99.90
17200;DHT22;8716;52.268;20.968;2023-06-14T11:00:20;26.10;99.90
17200;DHT22;8716;52.268;20.968;2023-06-14T11:03:30;26.10;99.90
17200;DHT22;8716;52.268;20.968;2023-06-14T11:06:13;26.00;99.90
17200;DHT22;8716;52.268;20.968;2023-06-14T11:09:04;26.10;99.90
17200;DHT22;8716;52.268;20.968;2023-06-14T11:11:38;26.10;99.90
17200;DHT22;8716;52.268;20.968;2023-06-14T11:14:07;26.10;99.90
17200;DHT22;8716;52.268;20.968;2023-06-14T11:16:35;26.20;99.90
17200;DHT22;8716;52.268;20.968;2023-06-14T11:19:06;26.20;99.90
17200;DHT22;8716;52.268;20.968;2023-06-14T11:21:40;26.20;99.90
17200;DHT22;8716;52.268;20.968;2023-06-14T11:24:10;26.30;99.90
17200;DHT22;8716;52.268;20.968;2023-06-14T11:26:40;26.40;99.90
17200;DHT22;8716;52.268;20.968;2023-06-14T11:29:09;26.40;99.90
17200;DHT22;8716;52.268;20.968;2023-06-14T11:31:37;26.30;99.90
17200;DHT22;8716;52.268;20.968;2023-06-14T11:34:06;26.50;99.90
17200;DHT22;8716;52.268;20.968;2023-06-14T11:36:38;26.70;99.90
17200;DHT22;8716;52.268;20.968;2023-06-14T11:39:07;27.00;99.90
17200;DHT22;8716;52.268;20.968;2023-06-14T11:41:40;27.40;99.90
17200;DHT22;8716;52.268;20.968;2023-06-14T11:44:09;27.70;98.80
17200;DHT22;8716;52.268;20.968;2023-06-14T11:46:37;28.00;97.30
17200;DHT22;8716;52.268;20.968;2023-06-14T11:49:07;28.20;95.80
17200;DHT22;8716;52.268;20.968;2023-06-14T11:51:38;28.20;96.20
17200;DHT22;8716;52.268;20.968;2023-06-14T11:54:06;28.30;94.70
17200;DHT22;8716;52.268;20.968;2023-06-14T11:56:36;28.10;94.80
17200;DHT22;8716;52.268;20.968;2023-06-14T11:59:06;28.00;94.30
17200;DHT22;8716;52.268;20.968;2023-06-14T12:01:37;27.80;94.70
17200;DHT22;8716;52.268;20.968;2023-06-14T12:04:23;27.80;95.20
17200;DHT22;8716;52.268;20.968;2023-06-14T12:06:53;27.70;94.10
17200;DHT22;8716;52.268;20.968;2023-06-14T12:09:22;27.60;93.90
17200;DHT22;8716;52.268;20.968;2023-06-14T12:12:00;27.60;94.30
17200;DHT22;8716;52.268;20.968;2023-06-14T12:14:28;27.50;92.30
17200;DHT22;8716;52.268;20.968;2023-06-14T12:17:04;27.40;92.80
17200;DHT22;8716;52.268;20.968;2023-06-14T12:19:41;27.30;92.70
17200;DHT22;8716;52.268;20.968;2023-06-14T12:22:11;27.20;93.30
17200;DHT22;8716;52.268;20.968;2023-06-14T12:24:42;27.10;93.50
17200;DHT22;8716;52.268;20.968;2023-06-14T12:27:11;27.00;93.20
17200;DHT22;8716;52.268;20.968;2023-06-14T12:29:43;26.80;92.50
17200;DHT22;8716;52.268;20.968;2023-06-14T12:32:12;26.60;92.70
17200;DHT22;8716;52.268;20.968;2023-06-14T12:34:40;26.30;93.10
17200;DHT22;8716;52.268;20.968;2023-06-14T12:37:08;26.00;94.20
17200;DHT22;8716;52.268;20.968;2023-06-14T12:39:38;25.70;95.10
17200;DHT22;8716;52.268;20.968;2023-06-14T12:42:07;25.40;94.60
17200;DHT22;8716;52.268;20.968;2023-06-14T12:44:36;25.10;95.60
17200;DHT22;8716;52.268;20.968;2023-06-14T12:47:07;24.90;96.80
17200;DHT22;8716;52.268;20.968;2023-06-14T12:49:36;24.90;96.60
17200;DHT22;8716;52.268;20.968;2023-06-14T12:52:05;24.80;96.40
17200;DHT22;8716;52.268;20.968;2023-06-14T12:54:33;24.80;97.10
17200;DHT22;8716;52.268;20.968;2023-06-14T12:57:08;24.80;97.50
17200;DHT22;8716;52.268;20.968;2023-06-14T12:59:37;24.90;97.30
17200;DHT22;8716;52.268;20.968;2023-06-14T13:02:13;24.90;96.80
17200;DHT22;8716;52.268;20.968;2023-06-14T13:04:41;24.80;96.20
17200;DHT22;8716;52.268;20.968;2023-06-14T13:07:10;24.60;94.80
17200;DHT22;8716;52.268;20.968;2023-06-14T13:09:38;24.50;95.20
17200;DHT22;8716;52.268;20.968;2023-06-14T13:12:11;24.30;95.50
17200;DHT22;8716;52.268;20.968;2023-06-14T13:14:40;24.20;94.90
17200;DHT22;8716;52.268;20.968;2023-06-14T13:17:09;24.00;95.50
17200;DHT22;8716;52.268;20.968;2023-06-14T13:19:37;23.90;95.60
17200;DHT22;8716;52.268;20.968;2023-06-14T13:22:06;23.90;96.10
17200;DHT22;8716;52.268;20.968;2023-06-14T13:24:35;23.80;96.40
17200;DHT22;8716;52.268;20.968;2023-06-14T13:27:04;23.70;96.50
17200;DHT22;8716;52.268;20.968;2023-06-14T13:29:33;23.70;96.70
17200;DHT22;8716;52.268;20.968;2023-06-14T13:32:07;23.60;97.20
17200;DHT22;8716;52.268;20.968;2023-06-14T13:34:35;23.70;97.30
17200;DHT22;8716;52.268;20.968;2023-06-14T13:37:04;23.70;97.20
17200;DHT22;8716;52.268;20.968;2023-06-14T13:39:35;23.70;97.40
17200;DHT22;8716;52.268;20.968;2023-06-14T13:42:05;23.70;97.80
17200;DHT22;8716;52.268;20.968;2023-06-14T13:44:34;23.70;97.40
17200;DHT22;8716;52.268;20.968;2023-06-14T13:47:03;23.70;97.80
17200;DHT22;8716;52.268;20.968;2023-06-14T13:49:32;23.70;98.20
17200;DHT22;8716;52.268;20.968;2023-06-14T13:52:02;23.80;98.20
17200;DHT22;8716;52.268;20.968;2023-06-14T13:54:30;23.80;98.60
17200;DHT22;8716;52.268;20.968;2023-06-14T13:56:59;23.80;98.60
17200;DHT22;8716;52.268;20.968;2023-06-14T13:59:27;23.80;98.50
17200;DHT22;8716;52.268;20.968;2023-06-14T14:01:59;23.70;98.40
17200;DHT22;8716;52.268;20.968;2023-06-14T14:04:28;23.80;98.80
17200;DHT22;8716;52.268;20.968;2023-06-14T14:06:59;23.90;98.70
17200;DHT22;8716;52.268;20.968;2023-06-14T14:09:27;23.90;98.20
17200;DHT22;8716;52.268;20.968;2023-06-14T14:11:55;23.90;98.40
17200;DHT22;8716;52.268;20.968;2023-06-14T14:14:24;23.90;98.40
17200;DHT22;8716;52.268;20.968;2023-06-14T14:16:52;23.90;98.20
17200;DHT22;8716;52.268;20.968;2023-06-14T14:19:23;23.90;98.00
17200;DHT22;8716;52.268;20.968;2023-06-14T14:21:51;23.90;98.30
17200;DHT22;8716;52.268;20.968;2023-06-14T14:24:21;23.90;98.10
17200;DHT22;8716;52.268;20.968;2023-06-14T14:26:49;23.80;98.10
17200;DHT22;8716;52.268;20.968;2023-06-14T14:29:20;23.70;98.10
17200;DHT22;8716;52.268;20.968;2023-06-14T14:31:53;23.80;98.30
17200;DHT22;8716;52.268;20.968;2023-06-14T14:34:23;23.80;98.30
17200;DHT22;8716;52.268;20.968;2023-06-14T14:36:52;23.70;98.60
17200;DHT22;8716;52.268;20.968;2023-06-14T14:39:20;23.70;98.80
17200;DHT22;8716;52.268;20.968;2023-06-14T14:41:50;23.70;99.00
17200;DHT22;8716;52.268;20.968;2023-06-14T14:44:18;23.70;99.30
17200;DHT22;8716;52.268;20.968;2023-06-14T14:46:47;23.60;99.20
17200;DHT22;8716;52.268;20.968;2023-06-14T14:49:15;23.50;99.40
17200;DHT22;8716;52.268;20.968;2023-06-14T14:51:45;23.40;99.50
17200;DHT22;8716;52.268;20.968;2023-06-14T14:54:14;23.30;99.80
17200;DHT22;8716;52.268;20.968;2023-06-14T14:56:42;23.20;99.90
17200;DHT22;8716;52.268;20.968;2023-06-14T14:59:11;23.10;99.90
17200;DHT22;8716;52.268;20.968;2023-06-14T15:01:40;23.00;99.90
17200;DHT22;8716;52.268;20.968;2023-06-14T15:04:08;22.90;99.90
17200;DHT22;8716;52.268;20.968;2023-06-14T15:06:37;22.80;99.90
17200;DHT22;8716;52.268;20.968;2023-06-14T15:09:08;22.70;99.90
17200;DHT22;8716;52.268;20.968;2023-06-14T15:11:36;22.70;99.90
17200;DHT22;8716;52.268;20.968;2023-06-14T15:14:05;22.60;99.90
17200;DHT22;8716;52.268;20.968;2023-06-14T15:16:33;22.50;99.90
17200;DHT22;8716;52.268;20.968;2023-06-14T15:19:02;22.50;99.90
17200;DHT22;8716;52.268;20.968;2023-06-14T15:21:30;22.40;99.90
17200;DHT22;8716;52.268;20.968;2023-06-14T15:23:58;22.30;99.90
17200;DHT22;8716;52.268;20.968;2023-06-14T15:26:28;22.10;99.90
17200;DHT22;8716;52.268;20.968;2023-06-14T15:28:56;22.10;99.90
17200;DHT22;8716;52.268;20.968;2023-06-14T15:31:25;22.10;99.90
17200;DHT22;8716;52.268;20.968;2023-06-14T15:33:55;22.00;99.90
17200;DHT22;8716;52.268;20.968;2023-06-14T15:36:24;21.90;99.90
17200;DHT22;8716;52.268;20.968;2023-06-14T15:38:53;21.90;99.90
17200;DHT22;8716;52.268;20.968;2023-06-14T15:41:21;21.90;99.90
17200;DHT22;8716;52.268;20.968;2023-06-14T15:43:51;22.00;99.90
17200;DHT22;8716;52.268;20.968;2023-06-14T15:46:21;21.90;99.90
17200;DHT22;8716;52.268;20.968;2023-06-14T15:48:49;22.00;99.90
17200;DHT22;8716;52.268;20.968;2023-06-14T15:51:18;22.00;99.90